createdAt,value
2022-09-28T00:02:22.641Z,62.58
2022-09-28T00:04:50.591Z,63.65
2022-09-28T00:07:18.353Z,64.07
2022-09-28T00:09:46.384Z,63.63
2022-09-28T00:12:14.157Z,63.73
2022-09-28T00:14:44.272Z,63.29
2022-09-28T00:17:11.983Z,62.52
2022-09-28T00:19:40.010Z,62.20
2022-09-28T00:22:07.972Z,61.97
2022-09-28T00:24:36.458Z,61.36
2022-09-28T00:27:04.258Z,60.91
2022-09-28T00:29:33.764Z,60.67
2022-09-28T00:32:04.458Z,60.63
2022-09-28T00:34:34.576Z,59.63
2022-09-28T00:37:05.765Z,59.36
2022-09-28T00:39:37.682Z,63.72
2022-09-28T00:42:11.903Z,66.31
2022-09-28T00:44:45.855Z,65.10
2022-09-28T00:47:30.725Z,62.51
2022-09-28T00:50:01.941Z,63.36
2022-09-28T00:52:33.777Z,63.48
2022-09-28T00:55:06.758Z,63.28
2022-09-28T00:57:38.875Z,62.93
2022-09-28T01:00:19.303Z,62.57
2022-09-28T01:02:48.888Z,62.35
2022-09-28T01:05:19.169Z,62.60
2022-09-28T01:07:49.244Z,62.49
2022-09-28T01:10:17.990Z,61.94
2022-09-28T01:12:46.699Z,60.59
2022-09-28T01:15:15.236Z,60.58
2022-09-28T01:17:57.075Z,61.29
2022-09-28T01:20:43.749Z,61.29
2022-09-28T01:23:28.762Z,61.07
2022-09-28T01:26:01.795Z,61.41
2022-09-28T01:28:30.016Z,61.42
2022-09-28T01:31:03.014Z,61.37
2022-09-28T01:33:32.711Z,61.87
2022-09-28T01:36:05.047Z,61.97
2022-09-28T01:38:37.243Z,60.48
2022-09-28T01:41:05.942Z,60.24
2022-09-28T01:43:35.695Z,61.22
2022-09-28T01:46:07.646Z,64.83
2022-09-28T01:48:39.264Z,64.18
2022-09-28T01:51:10.457Z,62.14
2022-09-28T01:53:41.202Z,62.13
2022-09-28T01:56:17.820Z,61.71
2022-09-28T01:58:48.653Z,60.34
2022-09-28T02:01:18.132Z,62.94
2022-09-28T02:03:48.848Z,65.54
2022-09-28T02:06:20.034Z,63.90
2022-09-28T02:08:50.709Z,62.27
2022-09-28T02:11:20.030Z,63.72
2022-09-28T02:13:49.987Z,61.51
2022-09-28T02:16:19.936Z,60.73
2022-09-28T02:18:50.520Z,61.05
2022-09-28T02:21:23.020Z,59.93
2022-09-28T02:23:53.941Z,63.81
2022-09-28T02:26:24.763Z,64.67
2022-09-28T02:28:52.929Z,63.32
2022-09-28T02:31:20.811Z,61.44
2022-09-28T02:33:51.133Z,61.64
2022-09-28T02:36:19.201Z,62.74
2022-09-28T02:38:46.956Z,62.27
2022-09-28T02:41:20.157Z,62.36
2022-09-28T02:43:52.951Z,59.38
2022-09-28T02:46:20.514Z,63.96
2022-09-28T02:49:17.361Z,64.26
2022-09-28T02:51:47.166Z,61.83
2022-09-28T02:54:28.883Z,62.33
2022-09-28T02:57:03.073Z,63.86
2022-09-28T02:59:43.788Z,63.25
2022-09-28T03:02:18.733Z,62.51
2022-09-28T03:04:52.717Z,62.91
2022-09-28T03:07:27.767Z,62.62
2022-09-28T03:09:59.118Z,59.79
2022-09-28T03:12:29.482Z,61.22
2022-09-28T03:15:08.515Z,64.28
2022-09-28T03:17:36.767Z,62.85
2022-09-28T03:20:06.187Z,62.26
2022-09-28T03:22:34.163Z,61.18
2022-09-28T03:25:01.773Z,59.48
2022-09-28T03:27:30.073Z,61.88
2022-09-28T03:29:57.965Z,65.39
2022-09-28T03:32:25.705Z,62.90
2022-09-28T03:34:53.978Z,61.81
2022-09-28T03:37:22.198Z,59.77
2022-09-28T03:39:50.001Z,62.56
2022-09-28T03:42:18.095Z,64.02
2022-09-28T03:44:48.668Z,59.95
2022-09-28T03:47:17.690Z,60.97
2022-09-28T03:49:45.811Z,64.06
2022-09-28T03:52:14.193Z,62.62
2022-09-28T03:54:45.732Z,59.73
2022-09-28T03:57:17.096Z,61.12
2022-09-28T03:59:44.720Z,65.38
2022-09-28T04:02:12.797Z,65.58
2022-09-28T04:04:41.151Z,64.63
2022-09-28T04:07:08.809Z,63.18
2022-09-28T04:09:36.487Z,62.24
2022-09-28T04:12:05.009Z,61.47
2022-09-28T04:14:33.903Z,60.96
2022-09-28T04:17:01.661Z,58.47
2022-09-28T04:19:32.465Z,59.92
2022-09-28T04:22:25.209Z,64.59
2022-09-28T04:24:53.219Z,62.19
2022-09-28T04:27:35.581Z,60.11
2022-09-28T04:30:04.266Z,60.05
2022-09-28T04:32:34.192Z,64.43
2022-09-28T04:35:02.198Z,65.40
2022-09-28T04:37:31.369Z,62.97
2022-09-28T04:39:59.176Z,62.13
2022-09-28T04:42:27.798Z,62.06
2022-09-28T04:44:57.520Z,60.97
2022-09-28T04:47:25.267Z,59.50
2022-09-28T04:50:29.494Z,63.51
2022-09-28T04:53:18.454Z,63.93
2022-09-28T04:55:54.463Z,63.18
2022-09-28T04:58:23.095Z,62.99
2022-09-28T05:00:51.347Z,60.89
2022-09-28T05:03:38.785Z,59.47
2022-09-28T05:06:36.347Z,63.56
2022-09-28T05:09:07.393Z,64.11
2022-09-28T05:11:35.108Z,62.90
2022-09-28T05:14:05.887Z,62.34
2022-09-28T05:16:34.097Z,62.60
2022-09-28T05:19:21.079Z,62.99
2022-09-28T05:21:49.559Z,60.89
2022-09-28T05:24:17.431Z,60.26
2022-09-28T05:26:51.022Z,59.77
2022-09-28T05:29:20.247Z,63.36
2022-09-28T05:32:07.419Z,64.34
2022-09-28T05:34:38.180Z,63.70
2022-09-28T05:37:06.056Z,61.39
2022-09-28T05:39:34.182Z,61.33
2022-09-28T05:42:01.993Z,61.87
2022-09-28T05:44:30.788Z,61.60
2022-09-28T05:46:59.211Z,60.94
2022-09-28T05:49:28.808Z,59.79
2022-09-28T05:51:56.415Z,59.58
2022-09-28T05:54:25.199Z,63.32
2022-09-28T05:56:53.176Z,63.54
2022-09-28T05:59:22.063Z,62.31
2022-09-28T06:01:51.880Z,61.68
2022-09-28T06:04:20.331Z,61.40
2022-09-28T06:06:49.399Z,60.21
2022-09-28T06:09:17.921Z,59.13
2022-09-28T06:12:11.694Z,63.27
2022-09-28T06:14:49.909Z,61.96
2022-09-28T06:17:17.771Z,59.30
2022-09-28T06:19:51.838Z,59.69
2022-09-28T06:22:27.366Z,64.31
2022-09-28T06:25:07.775Z,65.72
2022-09-28T06:27:39.052Z,64.06
2022-09-28T06:30:07.715Z,60.42
2022-09-28T06:32:35.451Z,59.68
2022-09-28T06:35:03.658Z,62.92
2022-09-28T06:37:32.707Z,64.67
2022-09-28T06:40:02.153Z,64.08
2022-09-28T06:42:30.833Z,61.11
2022-09-28T06:45:25.030Z,61.11
2022-09-28T06:48:09.491Z,60.71
2022-09-28T06:50:41.036Z,59.27
2022-09-28T06:53:29.338Z,57.18
2022-09-28T06:56:04.723Z,59.72
2022-09-28T06:58:33.111Z,62.80
2022-09-28T07:01:01.959Z,62.54
2022-09-28T07:03:35.834Z,60.16
2022-09-28T07:06:23.565Z,54.56
2022-09-28T07:09:30.748Z,60.78
2022-09-28T07:12:29.634Z,63.36
2022-09-28T07:15:02.252Z,59.61
2022-09-28T07:17:31.504Z,57.30
2022-09-28T07:20:14.166Z,57.85
2022-09-28T07:22:44.545Z,61.40
2022-09-28T07:25:18.779Z,61.91
2022-09-28T07:27:56.729Z,60.62
2022-09-28T07:30:50.635Z,56.17
2022-09-28T07:33:35.772Z,56.89
2022-09-28T07:36:20.736Z,59.27
2022-09-28T07:38:49.049Z,61.77
2022-09-28T07:41:32.039Z,60.78
2022-09-28T07:44:05.646Z,58.93
2022-09-28T07:46:35.654Z,60.09
2022-09-28T07:49:11.354Z,61.40
2022-09-28T07:52:02.920Z,61.04
2022-09-28T07:54:31.490Z,56.50
2022-09-28T07:57:16.347Z,57.56
2022-09-28T08:00:05.434Z,60.58
2022-09-28T08:02:52.005Z,60.75
2022-09-28T08:05:24.208Z,61.72
2022-09-28T08:07:52.682Z,62.14
2022-09-28T08:10:20.291Z,60.28
2022-09-28T08:13:23.486Z,53.87
2022-09-28T08:16:16.969Z,54.21
2022-09-28T08:18:59.077Z,57.68
2022-09-28T08:21:45.408Z,57.65
2022-09-28T08:24:14.994Z,56.59
2022-09-28T08:26:43.273Z,56.73
2022-09-28T08:29:12.381Z,57.73
2022-09-28T08:32:08.305Z,57.84
2022-09-28T08:34:36.286Z,57.56
2022-09-28T08:37:31.491Z,56.77
2022-09-28T08:40:19.435Z,55.22
2022-09-28T08:43:06.239Z,56.56
2022-09-28T08:45:52.975Z,55.12
2022-09-28T08:48:52.242Z,55.01
2022-09-28T08:51:55.178Z,55.20
2022-09-28T08:54:48.900Z,55.60
2022-09-28T08:57:27.517Z,56.05
2022-09-28T08:59:57.096Z,55.50
2022-09-28T09:02:36.233Z,55.06
2022-09-28T09:05:39.138Z,55.06
2022-09-28T09:08:15.408Z,54.66
2022-09-28T09:10:48.159Z,55.23
2022-09-28T09:13:31.001Z,55.67
2022-09-28T09:16:02.685Z,55.74
2022-09-28T09:19:02.715Z,55.38
2022-09-28T09:21:48.106Z,56.02
2022-09-28T09:24:21.418Z,56.20
2022-09-28T09:26:54.891Z,56.84
2022-09-28T09:29:29.510Z,56.52
2022-09-28T09:32:06.876Z,55.66
2022-09-28T09:34:51.009Z,55.97
2022-09-28T09:38:02.385Z,55.66
2022-09-28T09:40:57.633Z,55.09
2022-09-28T09:43:59.390Z,54.90
2022-09-28T09:46:50.363Z,55.03
2022-09-28T09:49:38.097Z,54.43
2022-09-28T09:52:11.333Z,54.38
2022-09-28T09:54:38.225Z,54.90
2022-09-28T09:57:10.497Z,54.41
2022-09-28T09:59:59.864Z,53.13
2022-09-28T10:02:43.526Z,53.34
2022-09-28T10:05:22.230Z,54.00
2022-09-28T10:07:53.400Z,53.49
2022-09-28T10:10:25.025Z,52.38
2022-09-28T10:12:55.862Z,52.23
2022-09-28T10:15:25.784Z,52.46
2022-09-28T10:18:06.469Z,51.97
2022-09-28T10:20:53.069Z,52.75
2022-09-28T10:23:33.514Z,52.75
2022-09-28T10:26:05.299Z,53.46
2022-09-28T10:28:35.502Z,51.87
2022-09-28T10:31:17.992Z,52.27
2022-09-28T10:33:45.958Z,53.01
2022-09-28T10:36:15.463Z,52.93
2022-09-28T10:38:47.806Z,52.37
2022-09-28T10:41:27.275Z,52.27
2022-09-28T10:44:06.556Z,51.36
2022-09-28T10:46:59.502Z,52.05
2022-09-28T10:49:28.449Z,50.77
2022-09-28T10:51:58.386Z,51.13
2022-09-28T10:54:31.322Z,51.73
2022-09-28T10:57:00.750Z,51.94
2022-09-28T10:59:46.746Z,51.77
2022-09-28T11:02:39.589Z,51.41
2022-09-28T11:05:27.284Z,52.60
2022-09-28T11:07:59.594Z,52.95
2022-09-28T11:10:33.921Z,51.58
2022-09-28T11:13:13.642Z,52.00
2022-09-28T11:15:44.801Z,52.51
2022-09-28T11:18:25.306Z,52.18
2022-09-28T11:21:09.657Z,52.38
2022-09-28T11:23:40.556Z,49.82
2022-09-28T11:26:18.750Z,50.25
2022-09-28T11:28:50.330Z,50.76
2022-09-28T11:31:27.091Z,50.60
2022-09-28T11:34:06.363Z,50.21
2022-09-28T11:37:01.842Z,50.72
2022-09-28T11:39:34.968Z,50.66
2022-09-28T11:42:03.616Z,51.59
2022-09-28T11:44:37.929Z,50.67
2022-09-28T11:47:28.008Z,50.12
2022-09-28T11:49:59.809Z,49.12
2022-09-28T11:52:31.228Z,49.65
2022-09-28T11:55:02.361Z,50.12
2022-09-28T11:57:35.392Z,50.17
2022-09-28T12:00:06.179Z,50.57
2022-09-28T12:02:46.827Z,51.03
2022-09-28T12:05:20.875Z,49.72
2022-09-28T12:07:53.080Z,49.42
2022-09-28T12:10:45.582Z,49.48
2022-09-28T12:13:17.122Z,49.44
2022-09-28T12:16:16.816Z,48.52
2022-09-28T12:18:38.868Z,48.60
2022-09-28T12:21:15.042Z,48.74
2022-09-28T12:23:44.113Z,49.46
2022-09-28T12:26:19.153Z,49.00
2022-09-28T12:28:48.975Z,48.67
2022-09-28T12:31:20.164Z,49.73
2022-09-28T12:33:49.249Z,49.12
2022-09-28T12:36:25.782Z,48.95
2022-09-28T12:39:19.160Z,48.20
2022-09-28T12:41:55.621Z,48.01
2022-09-28T12:44:33.264Z,48.78
2022-09-28T12:47:09.722Z,48.23
2022-09-28T12:52:37.105Z,49.07
2022-09-28T12:55:14.739Z,47.64
2022-09-28T12:57:48.633Z,47.12
2022-09-28T13:00:18.113Z,46.65
2022-09-28T13:02:59.770Z,45.43
2022-09-28T13:05:35.905Z,44.52
2022-09-28T13:08:07.853Z,40.41
2022-09-28T13:10:39.210Z,39.10
2022-09-28T13:13:15.028Z,40.54
2022-09-28T13:15:49.255Z,42.57
2022-09-28T13:18:21.085Z,43.90
2022-09-28T13:20:54.125Z,44.65
2022-09-28T13:23:25.998Z,45.38
2022-09-28T13:25:55.891Z,45.60
2022-09-28T13:28:27.114Z,45.80
2022-09-28T13:30:56.088Z,45.42
2022-09-28T13:33:29.039Z,43.96
2022-09-28T13:35:57.102Z,44.32
2022-09-28T13:38:43.384Z,44.76
2022-09-28T13:41:12.836Z,44.88
2022-09-28T13:43:55.670Z,45.25
2022-09-28T13:46:31.067Z,45.60
2022-09-28T13:49:04.438Z,44.92
2022-09-28T13:51:37.856Z,43.88
2022-09-28T13:54:17.287Z,41.94
2022-09-28T13:56:49.357Z,42.83
2022-09-28T13:59:19.462Z,43.75
2022-09-28T14:01:52.082Z,45.52
2022-09-28T14:04:21.335Z,46.63
2022-09-28T14:06:54.797Z,47.85
2022-09-28T14:09:39.298Z,47.85
2022-09-28T14:12:21.341Z,47.63
2022-09-28T14:14:50.178Z,48.01
2022-09-28T14:17:36.261Z,48.77
2022-09-28T14:20:06.763Z,48.25
2022-09-28T14:22:39.258Z,48.97
2022-09-28T14:25:13.820Z,49.30
2022-09-28T14:27:52.584Z,50.05
2022-09-28T14:30:22.258Z,49.92
2022-09-28T14:32:53.563Z,50.27
2022-09-28T14:35:24.840Z,50.63
2022-09-28T14:38:13.555Z,50.65
2022-09-28T14:41:09.874Z,51.02
2022-09-28T14:43:58.132Z,51.52
2022-09-28T14:46:44.197Z,52.47
2022-09-28T14:49:30.529Z,53.26
2022-09-28T14:52:02.330Z,53.27
2022-09-28T14:54:50.842Z,53.32
2022-09-28T14:57:20.281Z,53.18
2022-09-28T14:59:48.710Z,53.63
2022-09-28T15:02:22.164Z,54.06
2022-09-28T15:04:49.363Z,54.26
2022-09-28T15:07:21.581Z,53.98
2022-09-28T15:09:50.729Z,54.44
2022-09-28T15:12:20.377Z,54.64
2022-09-28T15:14:50.870Z,54.65
2022-09-28T15:17:21.063Z,54.76
2022-09-28T15:19:53.704Z,54.80
2022-09-28T15:22:21.937Z,55.18
2022-09-28T15:24:59.973Z,55.62
2022-09-28T15:27:34.888Z,55.57
2022-09-28T15:30:16.604Z,56.04
2022-09-28T15:32:44.594Z,56.36
2022-09-28T15:35:16.748Z,56.10
2022-09-28T15:37:44.720Z,56.30
2022-09-28T15:40:14.886Z,56.21
2022-09-28T15:42:44.800Z,56.54
2022-09-28T15:45:24.218Z,56.64
2022-09-28T15:47:57.224Z,56.87
2022-09-28T15:50:26.939Z,57.11
2022-09-28T15:52:57.163Z,57.57
2022-09-28T15:55:27.130Z,56.95
2022-09-28T15:58:15.529Z,56.83
2022-09-28T16:00:44.219Z,56.76
2022-09-28T16:03:28.280Z,56.91
2022-09-28T16:06:06.362Z,57.01
2022-09-28T16:08:42.730Z,56.85
2022-09-28T16:11:14.181Z,56.79
2022-09-28T16:13:54.555Z,56.70
2022-09-28T16:16:25.327Z,56.60
2022-09-28T16:18:54.717Z,56.23
2022-09-28T16:21:28.983Z,56.42
2022-09-28T16:23:57.125Z,56.36
2022-09-28T16:26:31.637Z,56.42
2022-09-28T16:29:11.130Z,56.62
2022-09-28T16:31:42.828Z,56.70
2022-09-28T16:34:19.676Z,56.85
2022-09-28T16:36:49.013Z,57.18
2022-09-28T16:39:20.080Z,57.34
2022-09-28T16:41:49.277Z,57.28
2022-09-28T16:44:23.564Z,57.38
2022-09-28T16:46:55.307Z,57.24
2022-09-28T16:49:25.186Z,57.33
2022-09-28T16:51:54.496Z,57.56
2022-09-28T16:54:45.568Z,57.61
2022-09-28T16:57:15.460Z,57.84
2022-09-28T16:59:47.028Z,57.89
2022-09-28T17:02:45.051Z,58.04
2022-09-28T17:05:16.386Z,57.99
2022-09-28T17:07:46.788Z,58.16
2022-09-28T17:10:18.751Z,58.42
2022-09-28T17:12:46.989Z,58.42
2022-09-28T17:15:18.097Z,58.54
2022-09-28T17:17:48.989Z,58.76
2022-09-28T17:20:26.321Z,58.86
2022-09-28T17:22:55.941Z,59.15
2022-09-28T17:25:26.086Z,59.22
2022-09-28T17:27:57.682Z,59.52
2022-09-28T17:30:26.368Z,59.58
2022-09-28T17:32:54.896Z,59.47
2022-09-28T17:35:35.144Z,59.79
2022-09-28T17:38:06.931Z,60.26
2022-09-28T17:40:43.129Z,60.38
2022-09-28T17:43:14.202Z,60.45
2022-09-28T17:45:44.374Z,60.69
2022-09-28T17:48:20.233Z,61.23
2022-09-28T17:50:48.970Z,61.34
2022-09-28T17:53:19.080Z,61.61
2022-09-28T17:55:49.995Z,61.60
2022-09-28T17:58:18.899Z,61.55
2022-09-28T18:00:47.545Z,61.78
2022-09-28T18:03:17.587Z,61.92
2022-09-28T18:05:47.778Z,62.00
2022-09-28T18:08:18.006Z,63.19
2022-09-28T18:10:46.432Z,59.99
2022-09-28T18:13:14.708Z,56.88
2022-09-28T18:15:50.162Z,57.49
2022-09-28T18:18:18.580Z,58.49
2022-09-28T18:20:46.614Z,60.05
2022-09-28T18:23:14.925Z,61.21
2022-09-28T18:25:43.663Z,64.56
2022-09-28T18:28:13.163Z,63.75
2022-09-28T18:30:42.541Z,61.92
2022-09-28T18:33:11.448Z,57.24
2022-09-28T18:35:39.398Z,56.82
2022-09-28T18:38:07.718Z,58.03
2022-09-28T18:40:35.793Z,58.62
2022-09-28T18:43:04.074Z,60.35
2022-09-28T18:45:34.274Z,61.49
2022-09-28T18:48:02.347Z,64.57
2022-09-28T18:50:30.312Z,65.19
2022-09-28T18:53:11.029Z,62.25
2022-09-28T18:55:39.617Z,58.37
2022-09-28T18:58:07.951Z,57.08
2022-09-28T19:00:37.141Z,58.42
2022-09-28T19:03:06.448Z,60.38
2022-09-28T19:05:34.623Z,64.68
2022-09-28T19:08:03.149Z,64.00
2022-09-28T19:10:31.209Z,61.76
2022-09-28T19:12:59.224Z,59.51
2022-09-28T19:15:27.180Z,58.44
2022-09-28T19:17:58.284Z,59.79
2022-09-28T19:20:25.915Z,62.29
2022-09-28T19:22:53.575Z,64.77
2022-09-28T19:25:21.281Z,62.85
2022-09-28T19:27:49.132Z,60.31
2022-09-28T19:30:16.851Z,57.56
2022-09-28T19:32:45.044Z,57.98
2022-09-28T19:35:12.990Z,59.92
2022-09-28T19:37:41.923Z,61.17
2022-09-28T19:40:10.615Z,63.11
2022-09-28T19:42:39.101Z,61.27
2022-09-28T19:45:08.424Z,58.77
2022-09-28T19:47:36.962Z,58.24
2022-09-28T19:50:06.525Z,59.61
2022-09-28T19:52:37.553Z,61.21
2022-09-28T19:55:06.569Z,62.35
2022-09-28T19:57:34.566Z,64.62
2022-09-28T20:00:04.075Z,61.06
2022-09-28T20:02:36.170Z,58.33
2022-09-28T20:05:04.837Z,58.60
2022-09-28T20:07:34.345Z,60.67
2022-09-28T20:10:02.343Z,63.97
2022-09-28T20:12:29.997Z,64.03
2022-09-28T20:14:57.529Z,59.43
2022-09-28T20:17:25.462Z,59.15
2022-09-28T20:19:53.366Z,62.45
2022-09-28T20:22:20.934Z,61.42
2022-09-28T20:24:49.096Z,59.56
2022-09-28T20:27:16.961Z,61.86
2022-09-28T20:29:44.616Z,62.80
2022-09-28T20:32:14.041Z,60.84
2022-09-28T20:34:42.400Z,60.66
2022-09-28T20:37:13.154Z,63.47
2022-09-28T20:39:44.816Z,63.19
2022-09-28T20:42:15.633Z,62.19
2022-09-28T20:44:43.858Z,60.51
2022-09-28T20:47:11.545Z,59.13
2022-09-28T20:49:39.351Z,63.62
2022-09-28T20:52:07.359Z,65.09
2022-09-28T20:54:34.878Z,64.02
2022-09-28T20:57:02.757Z,61.01
2022-09-28T20:59:30.687Z,61.03
2022-09-28T21:01:58.481Z,62.44
2022-09-28T21:04:26.569Z,63.06
2022-09-28T21:06:54.741Z,62.15
2022-09-28T21:09:22.406Z,61.48
2022-09-28T21:11:50.298Z,60.00
2022-09-28T21:14:18.192Z,63.38
2022-09-28T21:16:45.954Z,65.96
2022-09-28T21:19:13.637Z,65.16
2022-09-28T21:21:41.334Z,64.69
2022-09-28T21:24:09.757Z,64.32
2022-09-28T21:26:38.569Z,61.80
2022-09-28T21:29:07.844Z,61.35
2022-09-28T21:31:38.682Z,60.72
2022-09-28T21:34:06.817Z,61.44
2022-09-28T21:36:34.717Z,61.13
2022-09-28T21:39:04.958Z,59.51
2022-09-28T21:41:34.759Z,61.32
2022-09-28T21:44:03.023Z,64.99
2022-09-28T21:46:33.517Z,64.17
2022-09-28T21:49:02.341Z,64.48
2022-09-28T21:51:30.319Z,63.80
2022-09-28T21:53:57.966Z,62.05
2022-09-28T21:56:26.448Z,61.53
2022-09-28T21:58:54.748Z,61.56
2022-09-28T22:01:24.816Z,62.31
2022-09-28T22:03:53.526Z,62.91
2022-09-28T22:06:22.455Z,61.39
2022-09-28T22:08:50.305Z,59.95
2022-09-28T22:11:19.073Z,60.00
2022-09-28T22:13:48.380Z,59.80
2022-09-28T22:16:16.905Z,60.41
2022-09-28T22:18:45.034Z,64.53
2022-09-28T22:21:14.123Z,62.80
2022-09-28T22:23:42.190Z,62.05
2022-09-28T22:26:11.079Z,61.85
2022-09-28T22:28:39.867Z,62.34
2022-09-28T22:31:07.424Z,61.55
2022-09-28T22:33:36.179Z,61.17
2022-09-28T22:36:04.262Z,61.19
2022-09-28T22:38:32.059Z,61.03
2022-09-28T22:41:00.167Z,61.45
2022-09-28T22:43:28.318Z,61.26
2022-09-28T22:46:01.898Z,62.63
2022-09-28T22:48:30.173Z,63.32
2022-09-28T22:50:57.936Z,63.22
2022-09-28T22:53:25.901Z,63.74
2022-09-28T22:55:53.766Z,64.13
2022-09-28T22:58:21.324Z,64.82
2022-09-28T23:00:48.990Z,64.51
2022-09-28T23:03:17.495Z,65.14
2022-09-28T23:05:52.317Z,65.02
2022-09-28T23:08:20.573Z,63.00
2022-09-28T23:10:48.130Z,62.18
2022-09-28T23:13:16.322Z,62.64
2022-09-28T23:15:44.313Z,62.95
2022-09-28T23:18:12.034Z,64.33
2022-09-28T23:20:39.607Z,64.96
2022-09-28T23:23:07.665Z,65.00
2022-09-28T23:25:35.658Z,63.66
2022-09-28T23:28:03.300Z,64.20
2022-09-28T23:30:31.637Z,64.49
2022-09-28T23:32:59.274Z,63.93
2022-09-28T23:35:27.098Z,63.25
2022-09-28T23:37:54.982Z,62.67
2022-09-28T23:40:22.629Z,63.06
2022-09-28T23:42:50.339Z,63.76
2022-09-28T23:45:18.374Z,63.37
2022-09-28T23:47:45.891Z,62.70
2022-09-28T23:50:13.710Z,63.37
2022-09-28T23:52:42.212Z,63.79
2022-09-28T23:55:09.923Z,63.48
2022-09-28T23:57:40.474Z,62.64
